sensor_id;sensor_type;location;lat;lon;timestamp;temperature;humidity
66088;DHT22;52872;52.994;6.940;2023-03-09T00:02:15;3.50;99.90
66088;DHT22;52872;52.994;6.940;2023-03-09T00:04:42;3.50;99.90
66088;DHT22;52872;52.994;6.940;2023-03-09T00:07:10;3.50;99.90
66088;DHT22;52872;52.994;6.940;2023-03-09T00:09:37;3.50;99.90
66088;DHT22;52872;52.994;6.940;2023-03-09T00:12:04;3.60;99.90
66088;DHT22;52872;52.994;6.940;2023-03-09T00:14:31;3.60;99.90
66088;DHT22;52872;52.994;6.940;2023-03-09T00:16:58;3.50;99.90
66088;DHT22;52872;52.994;6.940;2023-03-09T00:19:25;3.50;99.90
66088;DHT22;52872;52.994;6.940;2023-03-09T00:21:57;3.50;99.90
66088;DHT22;52872;52.994;6.940;2023-03-09T00:24:26;3.50;99.90
66088;DHT22;52872;52.994;6.940;2023-03-09T00:26:57;3.50;99.90
66088;DHT22;52872;52.994;6.940;2023-03-09T00:29:26;3.40;99.90
66088;DHT22;52872;52.994;6.940;2023-03-09T00:31:56;3.40;99.90
66088;DHT22;52872;52.994;6.940;2023-03-09T00:34:23;3.30;99.90
66088;DHT22;52872;52.994;6.940;2023-03-09T00:36:50;3.30;99.90
66088;DHT22;52872;52.994;6.940;2023-03-09T00:39:17;3.20;99.90
66088;DHT22;52872;52.994;6.940;2023-03-09T00:41:45;3.10;99.90
66088;DHT22;52872;52.994;6.940;2023-03-09T00:44:13;3.10;99.90
66088;DHT22;52872;52.994;6.940;2023-03-09T00:46:40;3.00;99.90
66088;DHT22;52872;52.994;6.940;2023-03-09T00:49:10;3.00;99.90
66088;DHT22;52872;52.994;6.940;2023-03-09T00:51:38;3.00;99.90
66088;DHT22;52872;52.994;6.940;2023-03-09T00:54:05;3.00;99.90
66088;DHT22;52872;52.994;6.940;2023-03-09T00:56:32;2.90;99.90
66088;DHT22;52872;52.994;6.940;2023-03-09T00:59:00;2.90;99.90
66088;DHT22;52872;52.994;6.940;2023-03-09T01:01:27;2.90;99.90
66088;DHT22;52872;52.994;6.940;2023-03-09T01:03:54;2.90;99.90
66088;DHT22;52872;52.994;6.940;2023-03-09T01:06:23;2.90;99.90
66088;DHT22;52872;52.994;6.940;2023-03-09T01:08:51;2.90;99.90
66088;DHT22;52872;52.994;6.940;2023-03-09T01:11:18;2.90;99.90
66088;DHT22;52872;52.994;6.940;2023-03-09T01:13:45;2.90;99.90
66088;DHT22;52872;52.994;6.940;2023-03-09T01:16:13;2.90;99.90
66088;DHT22;52872;52.994;6.940;2023-03-09T01:18:40;2.90;99.90
66088;DHT22;52872;52.994;6.940;2023-03-09T01:21:08;2.90;99.90
66088;DHT22;52872;52.994;6.940;2023-03-09T01:23:39;2.90;99.90
66088;DHT22;52872;52.994;6.940;2023-03-09T01:26:06;2.90;99.90
66088;DHT22;52872;52.994;6.940;2023-03-09T01:28:36;2.80;99.90
66088;DHT22;52872;52.994;6.940;2023-03-09T01:31:11;2.80;99.90
66088;DHT22;52872;52.994;6.940;2023-03-09T01:33:40;2.80;99.90
66088;DHT22;52872;52.994;6.940;2023-03-09T01:36:11;2.70;99.90
66088;DHT22;52872;52.994;6.940;2023-03-09T01:38:39;2.70;99.90
66088;DHT22;52872;52.994;6.940;2023-03-09T01:41:06;2.60;99.90
66088;DHT22;52872;52.994;6.940;2023-03-09T01:43:38;2.60;99.90
66088;DHT22;52872;52.994;6.940;2023-03-09T01:46:29;2.60;99.90
66088;DHT22;52872;52.994;6.940;2023-03-09T01:51:46;2.60;99.90
66088;DHT22;52872;52.994;6.940;2023-03-09T01:56:58;2.60;99.90
66088;DHT22;52872;52.994;6.940;2023-03-09T01:59:28;2.50;99.90
66088;DHT22;52872;52.994;6.940;2023-03-09T02:01:57;2.50;99.90
66088;DHT22;52872;52.994;6.940;2023-03-09T02:04:34;2.50;99.90
66088;DHT22;52872;52.994;6.940;2023-03-09T02:07:03;2.50;99.90
66088;DHT22;52872;52.994;6.940;2023-03-09T02:09:36;2.50;99.90
66088;DHT22;52872;52.994;6.940;2023-03-09T02:12:11;2.50;99.90
66088;DHT22;52872;52.994;6.940;2023-03-09T02:14:40;2.50;99.90
66088;DHT22;52872;52.994;6.940;2023-03-09T02:17:11;2.50;99.90
66088;DHT22;52872;52.994;6.940;2023-03-09T02:22:38;2.50;99.90
66088;DHT22;52872;52.994;6.940;2023-03-09T02:25:59;2.50;99.90
66088;DHT22;52872;52.994;6.940;2023-03-09T02:28:29;2.50;99.90
66088;DHT22;52872;52.994;6.940;2023-03-09T02:30:56;2.50;99.90
66088;DHT22;52872;52.994;6.940;2023-03-09T02:33:26;2.40;99.90
66088;DHT22;52872;52.994;6.940;2023-03-09T02:35:58;2.50;99.90
66088;DHT22;52872;52.994;6.940;2023-03-09T02:38:26;2.40;99.90
66088;DHT22;52872;52.994;6.940;2023-03-09T02:40:58;2.50;99.90
66088;DHT22;52872;52.994;6.940;2023-03-09T02:43:34;2.50;99.90
66088;DHT22;52872;52.994;6.940;2023-03-09T02:46:03;2.50;99.90
66088;DHT22;52872;52.994;6.940;2023-03-09T02:48:33;2.50;99.90
66088;DHT22;52872;52.994;6.940;2023-03-09T02:51:00;2.50;99.90
66088;DHT22;52872;52.994;6.940;2023-03-09T02:53:28;2.50;99.90
66088;DHT22;52872;52.994;6.940;2023-03-09T02:55:55;2.50;99.90
66088;DHT22;52872;52.994;6.940;2023-03-09T02:58:23;2.50;99.90
66088;DHT22;52872;52.994;6.940;2023-03-09T03:00:49;2.50;99.90
66088;DHT22;52872;52.994;6.940;2023-03-09T03:03:17;2.50;99.90
66088;DHT22;52872;52.994;6.940;2023-03-09T03:05:48;2.50;99.90
66088;DHT22;52872;52.994;6.940;2023-03-09T03:08:15;2.50;99.90
66088;DHT22;52872;52.994;6.940;2023-03-09T03:10:56;2.60;99.90
66088;DHT22;52872;52.994;6.940;2023-03-09T03:13:23;2.60;99.90
66088;DHT22;52872;52.994;6.940;2023-03-09T03:15:50;2.60;99.90
66088;DHT22;52872;52.994;6.940;2023-03-09T03:18:23;2.60;99.90
66088;DHT22;52872;52.994;6.940;2023-03-09T03:20:50;2.60;99.90
66088;DHT22;52872;52.994;6.940;2023-03-09T03:23:17;2.60;99.90
66088;DHT22;52872;52.994;6.940;2023-03-09T03:25:49;2.60;99.90
66088;DHT22;52872;52.994;6.940;2023-03-09T03:28:16;2.60;99.90
66088;DHT22;52872;52.994;6.940;2023-03-09T03:30:50;2.60;99.90
66088;DHT22;52872;52.994;6.940;2023-03-09T03:33:19;2.60;99.90
66088;DHT22;52872;52.994;6.940;2023-03-09T03:35:46;2.60;99.90
66088;DHT22;52872;52.994;6.940;2023-03-09T03:38:13;2.60;99.90
66088;DHT22;52872;52.994;6.940;2023-03-09T03:40:41;2.50;99.90
66088;DHT22;52872;52.994;6.940;2023-03-09T03:43:09;2.50;99.90
66088;DHT22;52872;52.994;6.940;2023-03-09T03:45:39;2.50;99.90
66088;DHT22;52872;52.994;6.940;2023-03-09T03:48:06;2.50;99.90
66088;DHT22;52872;52.994;6.940;2023-03-09T03:50:33;2.50;99.90
66088;DHT22;52872;52.994;6.940;2023-03-09T03:53:02;2.50;99.90
66088;DHT22;52872;52.994;6.940;2023-03-09T03:55:29;2.50;99.90
66088;DHT22;52872;52.994;6.940;2023-03-09T03:57:57;2.50;99.90
66088;DHT22;52872;52.994;6.940;2023-03-09T04:00:25;2.40;99.90
66088;DHT22;52872;52.994;6.940;2023-03-09T04:02:55;2.40;99.90
66088;DHT22;52872;52.994;6.940;2023-03-09T04:05:31;2.40;99.90
66088;DHT22;52872;52.994;6.940;2023-03-09T04:07:58;2.40;99.90
66088;DHT22;52872;52.994;6.940;2023-03-09T04:10:25;2.40;99.90
66088;DHT22;52872;52.994;6.940;2023-03-09T04:12:52;2.40;99.90
66088;DHT22;52872;52.994;6.940;2023-03-09T04:15:20;2.40;99.90
66088;DHT22;52872;52.994;6.940;2023-03-09T04:17:48;2.40;99.90
66088;DHT22;52872;52.994;6.940;2023-03-09T04:20:17;2.40;99.90
66088;DHT22;52872;52.994;6.940;2023-03-09T04:22:48;2.40;99.90
66088;DHT22;52872;52.994;6.940;2023-03-09T04:25:17;2.40;99.90
66088;DHT22;52872;52.994;6.940;2023-03-09T04:27:44;2.50;99.90
66088;DHT22;52872;52.994;6.940;2023-03-09T04:30:28;2.50;99.90
66088;DHT22;52872;52.994;6.940;2023-03-09T04:32:59;2.50;99.90
66088;DHT22;52872;52.994;6.940;2023-03-09T04:35:26;2.50;99.90
66088;DHT22;52872;52.994;6.940;2023-03-09T04:37:56;2.50;99.90
66088;DHT22;52872;52.994;6.940;2023-03-09T04:40:23;2.50;99.90
66088;DHT22;52872;52.994;6.940;2023-03-09T04:42:53;2.50;99.90
66088;DHT22;52872;52.994;6.940;2023-03-09T04:45:20;2.50;99.90
66088;DHT22;52872;52.994;6.940;2023-03-09T04:47:48;2.40;99.90
66088;DHT22;52872;52.994;6.940;2023-03-09T04:50:16;2.40;99.90
66088;DHT22;52872;52.994;6.940;2023-03-09T04:52:51;2.50;99.90
66088;DHT22;52872;52.994;6.940;2023-03-09T04:55:18;2.50;99.90
66088;DHT22;52872;52.994;6.940;2023-03-09T04:57:46;2.60;99.90
66088;DHT22;52872;52.994;6.940;2023-03-09T05:00:15;2.50;99.90
66088;DHT22;52872;52.994;6.940;2023-03-09T05:02:42;2.60;99.90
66088;DHT22;52872;52.994;6.940;2023-03-09T05:05:09;2.60;99.90
66088;DHT22;52872;52.994;6.940;2023-03-09T05:07:37;2.60;99.90
66088;DHT22;52872;52.994;6.940;2023-03-09T05:10:06;2.50;99.90
66088;DHT22;52872;52.994;6.940;2023-03-09T05:12:36;2.50;99.90
66088;DHT22;52872;52.994;6.940;2023-03-09T05:15:07;2.50;99.90
66088;DHT22;52872;52.994;6.940;2023-03-09T05:17:35;2.50;99.90
66088;DHT22;52872;52.994;6.940;2023-03-09T05:20:03;2.50;99.90
66088;DHT22;52872;52.994;6.940;2023-03-09T05:22:40;2.50;99.90
66088;DHT22;52872;52.994;6.940;2023-03-09T05:25:09;2.40;99.90
66088;DHT22;52872;52.994;6.940;2023-03-09T05:27:36;2.40;99.90
66088;DHT22;52872;52.994;6.940;2023-03-09T05:30:05;2.40;99.90
66088;DHT22;52872;52.994;6.940;2023-03-09T05:32:34;2.50;99.90
66088;DHT22;52872;52.994;6.940;2023-03-09T05:35:02;2.40;99.90
66088;DHT22;52872;52.994;6.940;2023-03-09T05:37:32;2.30;99.90
66088;DHT22;52872;52.994;6.940;2023-03-09T05:40:02;2.40;99.90
66088;DHT22;52872;52.994;6.940;2023-03-09T05:42:32;2.30;99.90
66088;DHT22;52872;52.994;6.940;2023-03-09T05:44:59;2.30;99.90
66088;DHT22;52872;52.994;6.940;2023-03-09T05:47:28;2.30;99.90
66088;DHT22;52872;52.994;6.940;2023-03-09T05:49:55;2.30;99.90
66088;DHT22;52872;52.994;6.940;2023-03-09T05:52:22;2.30;99.90
66088;DHT22;52872;52.994;6.940;2023-03-09T05:54:50;2.30;99.90
66088;DHT22;52872;52.994;6.940;2023-03-09T05:57:17;2.30;99.90
66088;DHT22;52872;52.994;6.940;2023-03-09T05:59:47;2.30;99.90
66088;DHT22;52872;52.994;6.940;2023-03-09T06:02:15;2.30;99.90
66088;DHT22;52872;52.994;6.940;2023-03-09T06:04:43;2.30;99.90
66088;DHT22;52872;52.994;6.940;2023-03-09T06:07:15;2.30;99.90
66088;DHT22;52872;52.994;6.940;2023-03-09T06:09:45;2.30;99.90
66088;DHT22;52872;52.994;6.940;2023-03-09T06:12:17;2.30;99.90
66088;DHT22;52872;52.994;6.940;2023-03-09T06:14:50;2.30;99.90
66088;DHT22;52872;52.994;6.940;2023-03-09T06:17:20;2.40;99.90
66088;DHT22;52872;52.994;6.940;2023-03-09T06:19:47;2.30;99.90
66088;DHT22;52872;52.994;6.940;2023-03-09T06:22:15;2.40;99.90
66088;DHT22;52872;52.994;6.940;2023-03-09T06:24:42;2.40;99.90
66088;DHT22;52872;52.994;6.940;2023-03-09T06:27:13;2.50;99.90
66088;DHT22;52872;52.994;6.940;2023-03-09T06:29:40;2.50;99.90
66088;DHT22;52872;52.994;6.940;2023-03-09T06:32:07;2.50;99.90
66088;DHT22;52872;52.994;6.940;2023-03-09T06:34:37;2.50;99.90
66088;DHT22;52872;52.994;6.940;2023-03-09T06:37:07;2.60;99.90
66088;DHT22;52872;52.994;6.940;2023-03-09T06:39:34;2.60;99.90
66088;DHT22;52872;52.994;6.940;2023-03-09T06:42:01;2.60;99.90
66088;DHT22;52872;52.994;6.940;2023-03-09T06:44:37;2.70;99.90
66088;DHT22;52872;52.994;6.940;2023-03-09T06:47:04;2.70;99.90
66088;DHT22;52872;52.994;6.940;2023-03-09T06:49:31;2.80;99.90
66088;DHT22;52872;52.994;6.940;2023-03-09T06:52:04;2.80;99.90
66088;DHT22;52872;52.994;6.940;2023-03-09T06:54:32;2.80;99.90
66088;DHT22;52872;52.994;6.940;2023-03-09T06:57:08;2.80;99.90
66088;DHT22;52872;52.994;6.940;2023-03-09T06:59:38;2.80;99.90
66088;DHT22;52872;52.994;6.940;2023-03-09T07:02:05;2.80;99.90
66088;DHT22;52872;52.994;6.940;2023-03-09T07:04:32;2.90;99.90
66088;DHT22;52872;52.994;6.940;2023-03-09T07:06:59;2.90;99.90
66088;DHT22;52872;52.994;6.940;2023-03-09T07:09:26;3.00;99.90
66088;DHT22;52872;52.994;6.940;2023-03-09T07:11:53;3.00;99.90
66088;DHT22;52872;52.994;6.940;2023-03-09T07:14:21;3.00;99.90
66088;DHT22;52872;52.994;6.940;2023-03-09T07:16:55;3.10;99.90
66088;DHT22;52872;52.994;6.940;2023-03-09T07:19:22;3.30;99.90
66088;DHT22;52872;52.994;6.940;2023-03-09T07:21:50;3.30;99.90
66088;DHT22;52872;52.994;6.940;2023-03-09T07:24:17;3.40;99.90
66088;DHT22;52872;52.994;6.940;2023-03-09T07:26:46;3.50;99.90
66088;DHT22;52872;52.994;6.940;2023-03-09T07:29:14;3.60;99.90
66088;DHT22;52872;52.994;6.940;2023-03-09T07:31:41;3.60;99.90
66088;DHT22;52872;52.994;6.940;2023-03-09T07:34:08;3.60;99.90
66088;DHT22;52872;52.994;6.940;2023-03-09T07:36:35;3.60;99.90
66088;DHT22;52872;52.994;6.940;2023-03-09T07:39:02;3.70;99.90
66088;DHT22;52872;52.994;6.940;2023-03-09T07:41:29;3.80;99.90
66088;DHT22;52872;52.994;6.940;2023-03-09T07:43:58;3.80;99.90
66088;DHT22;52872;52.994;6.940;2023-03-09T07:46:26;3.90;99.90
66088;DHT22;52872;52.994;6.940;2023-03-09T07:48:53;3.90;99.90
66088;DHT22;52872;52.994;6.940;2023-03-09T07:51:21;3.90;99.90
66088;DHT22;52872;52.994;6.940;2023-03-09T07:53:48;3.90;99.90
66088;DHT22;52872;52.994;6.940;2023-03-09T07:56:16;3.90;99.90
66088;DHT22;52872;52.994;6.940;2023-03-09T07:58:43;3.90;99.90
66088;DHT22;52872;52.994;6.940;2023-03-09T08:01:16;3.90;99.90
66088;DHT22;52872;52.994;6.940;2023-03-09T08:03:47;4.00;99.90
66088;DHT22;52872;52.994;6.940;2023-03-09T08:06:14;4.10;99.90
66088;DHT22;52872;52.994;6.940;2023-03-09T08:08:42;4.20;99.90
66088;DHT22;52872;52.994;6.940;2023-03-09T08:11:09;4.30;99.90
66088;DHT22;52872;52.994;6.940;2023-03-09T08:13:36;4.40;99.90
66088;DHT22;52872;52.994;6.940;2023-03-09T08:16:06;4.50;99.90
66088;DHT22;52872;52.994;6.940;2023-03-09T08:18:33;4.70;99.90
66088;DHT22;52872;52.994;6.940;2023-03-09T08:21:06;4.70;99.90
66088;DHT22;52872;52.994;6.940;2023-03-09T08:23:35;4.80;99.90
66088;DHT22;52872;52.994;6.940;2023-03-09T08:26:02;4.80;99.90
66088;DHT22;52872;52.994;6.940;2023-03-09T08:28:30;4.80;99.90
66088;DHT22;52872;52.994;6.940;2023-03-09T08:30:57;4.90;99.90
66088;DHT22;52872;52.994;6.940;2023-03-09T08:33:25;4.90;99.90
66088;DHT22;52872;52.994;6.940;2023-03-09T08:35:52;4.90;99.90
66088;DHT22;52872;52.994;6.940;2023-03-09T08:38:19;4.90;99.90
66088;DHT22;52872;52.994;6.940;2023-03-09T08:40:46;4.90;99.90
66088;DHT22;52872;52.994;6.940;2023-03-09T08:43:14;4.90;99.90
66088;DHT22;52872;52.994;6.940;2023-03-09T08:45:41;5.00;99.90
66088;DHT22;52872;52.994;6.940;2023-03-09T08:48:08;5.00;99.90
66088;DHT22;52872;52.994;6.940;2023-03-09T08:50:35;5.00;99.90
66088;DHT22;52872;52.994;6.940;2023-03-09T08:53:02;5.00;99.90
66088;DHT22;52872;52.994;6.940;2023-03-09T08:55:29;5.10;99.90
66088;DHT22;52872;52.994;6.940;2023-03-09T08:57:57;5.10;99.90
66088;DHT22;52872;52.994;6.940;2023-03-09T09:00:25;5.20;99.90
66088;DHT22;52872;52.994;6.940;2023-03-09T09:02:52;5.20;99.90
66088;DHT22;52872;52.994;6.940;2023-03-09T09:05:19;5.20;99.90
66088;DHT22;52872;52.994;6.940;2023-03-09T09:07:46;5.20;99.90
66088;DHT22;52872;52.994;6.940;2023-03-09T09:10:14;5.20;99.90
66088;DHT22;52872;52.994;6.940;2023-03-09T09:13:00;5.20;99.90
66088;DHT22;52872;52.994;6.940;2023-03-09T09:15:27;5.10;99.90
66088;DHT22;52872;52.994;6.940;2023-03-09T09:17:54;5.20;99.90
66088;DHT22;52872;52.994;6.940;2023-03-09T09:20:22;5.30;99.90
66088;DHT22;52872;52.994;6.940;2023-03-09T09:22:49;5.30;99.90
66088;DHT22;52872;52.994;6.940;2023-03-09T09:25:16;5.40;99.90
66088;DHT22;52872;52.994;6.940;2023-03-09T09:27:43;5.50;99.90
66088;DHT22;52872;52.994;6.940;2023-03-09T09:30:11;5.50;99.90
66088;DHT22;52872;52.994;6.940;2023-03-09T09:32:39;5.60;99.90
66088;DHT22;52872;52.994;6.940;2023-03-09T09:35:07;5.60;99.90
66088;DHT22;52872;52.994;6.940;2023-03-09T09:37:34;5.70;99.90
66088;DHT22;52872;52.994;6.940;2023-03-09T09:40:02;5.70;99.90
66088;DHT22;52872;52.994;6.940;2023-03-09T09:42:38;5.70;99.90
66088;DHT22;52872;52.994;6.940;2023-03-09T09:45:34;5.70;99.90
66088;DHT22;52872;52.994;6.940;2023-03-09T09:48:04;5.70;99.90
66088;DHT22;52872;52.994;6.940;2023-03-09T09:50:48;5.60;99.90
66088;DHT22;52872;52.994;6.940;2023-03-09T09:55:55;5.60;99.90
66088;DHT22;52872;52.994;6.940;2023-03-09T09:58:37;5.60;99.90
66088;DHT22;52872;52.994;6.940;2023-03-09T10:01:19;5.70;99.90
66088;DHT22;52872;52.994;6.940;2023-03-09T10:03:50;5.70;99.90
66088;DHT22;52872;52.994;6.940;2023-03-09T10:06:23;5.70;99.90
66088;DHT22;52872;52.994;6.940;2023-03-09T10:09:13;5.80;99.90
66088;DHT22;52872;52.994;6.940;2023-03-09T10:11:44;5.90;99.90
66088;DHT22;52872;52.994;6.940;2023-03-09T10:14:55;6.00;99.90
66088;DHT22;52872;52.994;6.940;2023-03-09T10:19:42;6.20;99.90
66088;DHT22;52872;52.994;6.940;2023-03-09T10:24:43;6.10;99.90
66088;DHT22;52872;52.994;6.940;2023-03-09T10:27:16;6.10;99.90
66088;DHT22;52872;52.994;6.940;2023-03-09T10:32:49;6.10;99.90
66088;DHT22;52872;52.994;6.940;2023-03-09T10:38:14;6.00;99.90
66088;DHT22;52872;52.994;6.940;2023-03-09T10:40:53;6.00;99.90
66088;DHT22;52872;52.994;6.940;2023-03-09T10:43:32;6.10;99.90
66088;DHT22;52872;52.994;6.940;2023-03-09T10:48:45;6.40;99.90
66088;DHT22;52872;52.994;6.940;2023-03-09T10:51:41;6.50;99.90
66088;DHT22;52872;52.994;6.940;2023-03-09T10:54:23;6.50;99.90
66088;DHT22;52872;52.994;6.940;2023-03-09T10:56:51;6.50;99.90
66088;DHT22;52872;52.994;6.940;2023-03-09T10:59:25;6.40;99.90
66088;DHT22;52872;52.994;6.940;2023-03-09T11:01:57;6.50;99.90
66088;DHT22;52872;52.994;6.940;2023-03-09T11:04:27;6.50;99.90
66088;DHT22;52872;52.994;6.940;2023-03-09T11:06:55;6.60;99.90
66088;DHT22;52872;52.994;6.940;2023-03-09T11:09:36;6.50;99.90
66088;DHT22;52872;52.994;6.940;2023-03-09T11:14:59;6.50;99.90
66088;DHT22;52872;52.994;6.940;2023-03-09T11:22:55;6.50;99.90
66088;DHT22;52872;52.994;6.940;2023-03-09T11:31:15;6.60;99.90
66088;DHT22;52872;52.994;6.940;2023-03-09T11:33:44;6.70;99.90
66088;DHT22;52872;52.994;6.940;2023-03-09T11:36:22;6.80;99.90
66088;DHT22;52872;52.994;6.940;2023-03-09T11:38:51;6.90;99.90
66088;DHT22;52872;52.994;6.940;2023-03-09T11:43:52;7.00;99.90
66088;DHT22;52872;52.994;6.940;2023-03-09T11:46:20;7.00;99.90
66088;DHT22;52872;52.994;6.940;2023-03-09T11:48:54;7.10;99.90
66088;DHT22;52872;52.994;6.940;2023-03-09T11:51:43;7.10;99.90
66088;DHT22;52872;52.994;6.940;2023-03-09T11:56:54;7.00;99.90
66088;DHT22;52872;52.994;6.940;2023-03-09T11:59:53;6.90;99.90
66088;DHT22;52872;52.994;6.940;2023-03-09T12:02:35;7.10;99.90
66088;DHT22;52872;52.994;6.940;2023-03-09T12:05:11;7.00;99.90
66088;DHT22;52872;52.994;6.940;2023-03-09T12:08:02;7.00;99.90
66088;DHT22;52872;52.994;6.940;2023-03-09T12:13:28;6.80;99.90
66088;DHT22;52872;52.994;6.940;2023-03-09T12:18:40;6.80;99.90
66088;DHT22;52872;52.994;6.940;2023-03-09T12:21:09;6.80;99.90
66088;DHT22;52872;52.994;6.940;2023-03-09T12:26:29;6.60;99.90
66088;DHT22;52872;52.994;6.940;2023-03-09T12:34:42;6.80;99.90
66088;DHT22;52872;52.994;6.940;2023-03-09T12:42:46;7.00;99.90
66088;DHT22;52872;52.994;6.940;2023-03-09T12:48:19;7.10;99.90
66088;DHT22;52872;52.994;6.940;2023-03-09T12:50:49;7.20;99.90
66088;DHT22;52872;52.994;6.940;2023-03-09T12:53:19;7.20;99.90
66088;DHT22;52872;52.994;6.940;2023-03-09T12:55:49;7.20;99.90
66088;DHT22;52872;52.994;6.940;2023-03-09T13:01:10;7.40;99.90
66088;DHT22;52872;52.994;6.940;2023-03-09T13:04:16;7.50;99.90
66088;DHT22;52872;52.994;6.940;2023-03-09T13:09:40;7.40;99.90
66088;DHT22;52872;52.994;6.940;2023-03-09T13:12:28;7.40;99.90
66088;DHT22;52872;52.994;6.940;2023-03-09T13:15:18;7.40;99.90
66088;DHT22;52872;52.994;6.940;2023-03-09T13:18:04;7.30;99.90
66088;DHT22;52872;52.994;6.940;2023-03-09T13:20:37;7.30;99.90
66088;DHT22;52872;52.994;6.940;2023-03-09T13:23:14;7.20;99.90
66088;DHT22;52872;52.994;6.940;2023-03-09T13:25:46;7.30;99.90
66088;DHT22;52872;52.994;6.940;2023-03-09T13:28:37;7.30;99.90
66088;DHT22;52872;52.994;6.940;2023-03-09T13:31:08;7.30;99.90
66088;DHT22;52872;52.994;6.940;2023-03-09T13:33:44;7.20;99.90
66088;DHT22;52872;52.994;6.940;2023-03-09T13:36:18;7.20;99.90
66088;DHT22;52872;52.994;6.940;2023-03-09T13:39:19;7.20;99.90
66088;DHT22;52872;52.994;6.940;2023-03-09T13:41:47;7.20;99.90
66088;DHT22;52872;52.994;6.940;2023-03-09T13:44:17;7.10;99.90
66088;DHT22;52872;52.994;6.940;2023-03-09T13:46:46;7.00;99.90
66088;DHT22;52872;52.994;6.940;2023-03-09T13:49:21;7.00;99.90
66088;DHT22;52872;52.994;6.940;2023-03-09T13:51:56;7.10;99.90
66088;DHT22;52872;52.994;6.940;2023-03-09T14:00:00;6.90;99.90
66088;DHT22;52872;52.994;6.940;2023-03-09T14:02:36;6.80;99.90
66088;DHT22;52872;52.994;6.940;2023-03-09T14:08:02;6.70;99.90
66088;DHT22;52872;52.994;6.940;2023-03-09T14:10:38;6.70;99.90
66088;DHT22;52872;52.994;6.940;2023-03-09T14:13:23;6.70;99.90
66088;DHT22;52872;52.994;6.940;2023-03-09T14:16:27;6.60;99.90
66088;DHT22;52872;52.994;6.940;2023-03-09T14:18:57;6.50;99.90
66088;DHT22;52872;52.994;6.940;2023-03-09T14:21:33;6.40;99.90
66088;DHT22;52872;52.994;6.940;2023-03-09T14:26:44;6.30;99.90
66088;DHT22;52872;52.994;6.940;2023-03-09T14:32:28;6.20;99.90
66088;DHT22;52872;52.994;6.940;2023-03-09T14:38:18;6.00;99.90
66088;DHT22;52872;52.994;6.940;2023-03-09T14:40:46;5.90;99.90
66088;DHT22;52872;52.994;6.940;2023-03-09T14:43:40;5.90;99.90
66088;DHT22;52872;52.994;6.940;2023-03-09T14:46:22;5.90;99.90
66088;DHT22;52872;52.994;6.940;2023-03-09T14:48:54;5.80;99.90
66088;DHT22;52872;52.994;6.940;2023-03-09T14:51:24;5.80;99.90
66088;DHT22;52872;52.994;6.940;2023-03-09T14:54:09;5.70;99.90
66088;DHT22;52872;52.994;6.940;2023-03-09T14:56:36;5.70;99.90
66088;DHT22;52872;52.994;6.940;2023-03-09T14:59:12;5.70;99.90
66088;DHT22;52872;52.994;6.940;2023-03-09T15:01:42;5.70;99.90
66088;DHT22;52872;52.994;6.940;2023-03-09T15:04:24;5.70;99.90
66088;DHT22;52872;52.994;6.940;2023-03-09T15:06:52;5.60;99.90
66088;DHT22;52872;52.994;6.940;2023-03-09T15:09:19;5.60;99.90
66088;DHT22;52872;52.994;6.940;2023-03-09T15:11:47;5.60;99.90
66088;DHT22;52872;52.994;6.940;2023-03-09T15:16:57;5.60;99.90
66088;DHT22;52872;52.994;6.940;2023-03-09T15:19:24;5.50;99.90
66088;DHT22;52872;52.994;6.940;2023-03-09T15:21:53;5.50;99.90
66088;DHT22;52872;52.994;6.940;2023-03-09T15:24:27;5.50;99.90
66088;DHT22;52872;52.994;6.940;2023-03-09T15:26:58;5.50;99.90
66088;DHT22;52872;52.994;6.940;2023-03-09T15:29:25;5.40;99.90
66088;DHT22;52872;52.994;6.940;2023-03-09T15:31:52;5.40;99.90
66088;DHT22;52872;52.994;6.940;2023-03-09T15:34:20;5.40;99.90
66088;DHT22;52872;52.994;6.940;2023-03-09T15:36:47;5.30;99.90
66088;DHT22;52872;52.994;6.940;2023-03-09T15:39:14;5.40;99.90
66088;DHT22;52872;52.994;6.940;2023-03-09T15:41:41;5.30;99.90
66088;DHT22;52872;52.994;6.940;2023-03-09T15:44:08;5.30;99.90
66088;DHT22;52872;52.994;6.940;2023-03-09T15:46:35;5.30;99.90
66088;DHT22;52872;52.994;6.940;2023-03-09T15:49:06;5.30;99.90
66088;DHT22;52872;52.994;6.940;2023-03-09T15:51:34;5.30;99.90
66088;DHT22;52872;52.994;6.940;2023-03-09T15:54:04;5.20;99.90
66088;DHT22;52872;52.994;6.940;2023-03-09T15:56:32;5.20;99.90
66088;DHT22;52872;52.994;6.940;2023-03-09T15:58:59;5.20;99.90
66088;DHT22;52872;52.994;6.940;2023-03-09T16:01:27;5.10;99.90
66088;DHT22;52872;52.994;6.940;2023-03-09T16:03:55;5.10;99.90
66088;DHT22;52872;52.994;6.940;2023-03-09T16:06:23;5.10;99.90
66088;DHT22;52872;52.994;6.940;2023-03-09T16:08:50;5.00;99.90
66088;DHT22;52872;52.994;6.940;2023-03-09T16:11:17;5.00;99.90
66088;DHT22;52872;52.994;6.940;2023-03-09T16:13:46;5.00;99.90
66088;DHT22;52872;52.994;6.940;2023-03-09T16:16:14;5.00;99.90
66088;DHT22;52872;52.994;6.940;2023-03-09T16:18:41;5.00;99.90
66088;DHT22;52872;52.994;6.940;2023-03-09T16:21:09;5.00;99.90
66088;DHT22;52872;52.994;6.940;2023-03-09T16:23:35;4.90;99.90
66088;DHT22;52872;52.994;6.940;2023-03-09T16:26:03;4.90;99.90
66088;DHT22;52872;52.994;6.940;2023-03-09T16:28:29;4.90;99.90
66088;DHT22;52872;52.994;6.940;2023-03-09T16:30:57;4.90;99.90
66088;DHT22;52872;52.994;6.940;2023-03-09T16:33:24;4.90;99.90
66088;DHT22;52872;52.994;6.940;2023-03-09T16:36:01;4.90;99.90
66088;DHT22;52872;52.994;6.940;2023-03-09T16:38:29;4.90;99.90
66088;DHT22;52872;52.994;6.940;2023-03-09T16:40:55;4.80;99.90
66088;DHT22;52872;52.994;6.940;2023-03-09T16:43:23;4.80;99.90
66088;DHT22;52872;52.994;6.940;2023-03-09T16:45:52;4.70;99.90
66088;DHT22;52872;52.994;6.940;2023-03-09T16:48:21;4.60;99.90
66088;DHT22;52872;52.994;6.940;2023-03-09T16:50:48;4.50;99.90
66088;DHT22;52872;52.994;6.940;2023-03-09T16:53:16;4.50;99.90
66088;DHT22;52872;52.994;6.940;2023-03-09T16:55:42;4.50;99.90
66088;DHT22;52872;52.994;6.940;2023-03-09T16:58:09;4.40;99.90
66088;DHT22;52872;52.994;6.940;2023-03-09T17:00:36;4.40;99.90
66088;DHT22;52872;52.994;6.940;2023-03-09T17:03:04;4.30;99.90
66088;DHT22;52872;52.994;6.940;2023-03-09T17:05:31;4.20;99.90
66088;DHT22;52872;52.994;6.940;2023-03-09T17:07:58;4.20;99.90
66088;DHT22;52872;52.994;6.940;2023-03-09T17:10:25;4.10;99.90
66088;DHT22;52872;52.994;6.940;2023-03-09T17:12:53;4.10;99.90
66088;DHT22;52872;52.994;6.940;2023-03-09T17:15:21;4.00;99.90
66088;DHT22;52872;52.994;6.940;2023-03-09T17:17:49;4.00;99.90
66088;DHT22;52872;52.994;6.940;2023-03-09T17:20:16;4.00;99.90
66088;DHT22;52872;52.994;6.940;2023-03-09T17:22:43;4.00;99.90
66088;DHT22;52872;52.994;6.940;2023-03-09T17:25:16;4.00;99.90
66088;DHT22;52872;52.994;6.940;2023-03-09T17:27:44;3.90;99.90
66088;DHT22;52872;52.994;6.940;2023-03-09T17:30:14;3.90;99.90
66088;DHT22;52872;52.994;6.940;2023-03-09T17:32:41;3.90;99.90
66088;DHT22;52872;52.994;6.940;2023-03-09T17:35:08;3.90;99.90
66088;DHT22;52872;52.994;6.940;2023-03-09T17:37:37;3.80;99.90
66088;DHT22;52872;52.994;6.940;2023-03-09T17:40:06;3.80;99.90